Time;durP1;ratioP1;P1;durP2;ratioP2;P2;SDS_P1;SDS_P2;PMS_P1;PMS_P2;Temp;Humidity;BMP_temperature;BMP_pressure;BME280_temperature;BME280_humidity;BME280_pressure;Samples;Min_cycle;Max_cycle;Signal;HPM_P1;HPM_P2
2023/02/11 00:00:22;;;;;;;33.60;20.67;;;;;;;8.34;63.44;102063.56;5045216;28;20053;-60
2023/02/11 00:02:49;;;;;;;29.63;20.85;;;;;;;8.41;63.69;102068.94;5053629;28;20069;-60
2023/02/11 00:05:17;;;;;;;30.25;19.67;;;;;;;8.44;63.82;102056.47;5039531;28;20414;-59
2023/02/11 00:07:44;;;;;;;31.27;20.70;;;;;;;8.47;62.77;102053.19;5045903;28;20054;-60
2023/02/11 00:10:11;;;;;;;32.80;20.98;;;;;;;8.42;64.22;102061.44;5047023;28;20049;-60
2023/02/11 00:12:41;;;;;;;30.05;19.70;;;;;;;8.51;64.12;102057.13;5041691;28;20049;-60
2023/02/11 00:15:10;;;;;;;29.83;20.88;;;;;;;8.51;62.90;102049.63;5047300;28;20409;-60
2023/02/11 00:17:37;;;;;;;31.50;20.83;;;;;;;8.49;63.17;102049.03;5054079;28;20063;-60
2023/02/11 00:20:07;;;;;;;30.63;19.83;;;;;;;8.62;63.42;102041.38;5043034;28;20045;-59
2023/02/11 00:22:34;;;;;;;30.23;20.23;;;;;;;8.50;62.25;102044.31;5044832;28;20045;-58
2023/02/11 00:25:02;;;;;;;31.75;20.25;;;;;;;8.43;62.93;102033.41;5038696;28;20057;-60
2023/02/11 00:27:29;;;;;;;29.77;20.92;;;;;;;8.47;62.77;102025.41;5049154;28;20049;-59
2023/02/11 00:29:59;;;;;;;33.05;21.05;;;;;;;8.48;63.02;102022.38;5036769;28;20060;-59
2023/02/11 00:32:26;;;;;;;35.90;22.50;;;;;;;8.41;63.87;102021.72;5043394;28;20053;-59
2023/02/11 00:34:54;;;;;;;28.98;20.52;;;;;;;8.41;62.66;102009.78;5036803;28;20425;-59
2023/02/11 00:37:24;;;;;;;32.70;21.00;;;;;;;8.29;63.24;102015.47;5052025;28;20068;-59
2023/02/11 00:39:55;;;;;;;31.42;20.33;;;;;;;8.28;64.13;102022.13;5053727;28;20049;-59
2023/02/11 00:42:22;;;;;;;29.73;20.92;;;;;;;8.34;63.31;102030.25;5047434;28;20064;-60
2023/02/11 00:44:49;;;;;;;30.20;21.40;;;;;;;8.35;63.24;102022.75;5038396;28;20428;-59
2023/02/11 00:47:18;;;;;;;28.80;19.80;;;;;;;8.41;63.96;102027.28;5051776;28;20048;-60
2023/02/11 00:49:45;;;;;;;26.67;18.88;;;;;;;8.44;63.92;102032.34;5040808;28;20056;-60
2023/02/11 00:52:14;;;;;;;30.52;20.42;;;;;;;8.38;63.46;102032.47;5037875;28;20050;-60
2023/02/11 00:54:41;;;;;;;29.23;20.10;;;;;;;8.47;63.57;102025.41;5037231;28;20075;-60
2023/02/11 00:57:09;;;;;;;28.02;20.17;;;;;;;8.46;63.96;102024.59;5044290;28;20044;-60
2023/02/11 00:59:36;;;;;;;30.48;19.77;;;;;;;8.51;62.69;102035.72;5041783;28;20076;-60
2023/02/11 01:02:07;;;;;;;28.73;18.52;;;;;;;8.55;63.75;102022.16;5047486;28;20045;-60
2023/02/11 01:04:35;;;;;;;25.45;18.98;;;;;;;8.57;63.44;102019.97;5043103;28;20065;-61
2023/02/11 01:07:03;;;;;;;27.75;19.27;;;;;;;8.49;63.73;102018.50;5046701;28;20056;-61
2023/02/11 01:09:30;;;;;;;28.17;19.60;;;;;;;8.44;63.86;102012.91;5043897;28;20075;-60
2023/02/11 01:11:57;;;;;;;29.95;19.05;;;;;;;8.42;63.00;102012.31;5044880;28;20080;-60
2023/02/11 01:14:24;;;;;;;29.00;19.13;;;;;;;8.38;62.85;102010.28;5045016;28;20049;-60
2023/02/11 01:16:52;;;;;;;27.55;19.65;;;;;;;8.45;63.53;102011.78;5047937;28;20478;-60
2023/02/11 01:19:19;;;;;;;28.38;17.80;;;;;;;8.48;63.83;102015.97;5051200;28;20048;-60
2023/02/11 01:21:48;;;;;;;28.70;18.92;;;;;;;8.47;62.58;102019.84;5038634;28;20049;-60
2023/02/11 01:24:15;;;;;;;28.60;19.10;;;;;;;8.53;62.75;102014.09;5037855;28;20474;-61
2023/02/11 01:26:42;;;;;;;26.58;18.27;;;;;;;8.56;63.42;102017.44;5046304;28;20055;-61
2023/02/11 01:29:12;;;;;;;28.25;18.00;;;;;;;8.64;62.16;102016.97;5042660;28;20121;-60
2023/02/11 01:31:40;;;;;;;25.05;17.75;;;;;;;8.70;62.00;102024.25;5052649;28;20049;-60
2023/02/11 01:34:07;;;;;;;27.42;18.17;;;;;;;8.67;62.64;102030.31;5051763;28;20056;-60
2023/02/11 01:36:34;;;;;;;25.35;18.50;;;;;;;8.65;61.60;102021.41;5043262;28;20060;-60
2023/02/11 01:39:03;;;;;;;28.73;18.80;;;;;;;8.65;61.70;102026.97;5034233;28;20438;-60
2023/02/11 01:41:30;;;;;;;23.90;16.57;;;;;;;8.66;61.74;102028.66;5040869;28;20398;-60
2023/02/11 01:44:23;;;;;;;25.45;17.75;;;;;;;8.71;62.49;102032.31;5039729;28;20057;-60
2023/02/11 01:46:51;;;;;;;33.92;17.88;;;;;;;8.70;61.58;102036.19;5033909;28;20053;-60
2023/02/11 01:49:23;;;;;;;25.00;19.10;;;;;;;8.69;61.58;102039.22;5035217;28;20053;-60
2023/02/11 01:51:55;;;;;;;27.25;17.48;;;;;;;8.64;62.63;102023.34;5046309;28;20163;-60
2023/02/11 01:57:23;;;;;;;26.80;18.35;;;;;;;8.63;62.42;102013.34;5047919;28;20450;-60
2023/02/11 02:00:09;;;;;;;24.73;16.13;;;;;;;8.74;62.18;102020.66;5037696;28;20045;-60
2023/02/11 02:02:44;;;;;;;24.73;17.23;;;;;;;8.67;62.97;102010.88;5051448;28;20053;-61
2023/02/11 02:05:20;;;;;;;25.73;17.65;;;;;;;8.60;62.87;102030.53;5049206;28;20045;-60
2023/02/11 02:07:58;;;;;;;28.45;18.70;;;;;;;8.48;63.61;102004.84;5034113;28;20474;-61
2023/02/11 02:10:28;;;;;;;26.45;17.35;;;;;;;8.43;63.26;102005.66;5035696;28;20397;-60
2023/02/11 02:13:00;;;;;;;26.33;17.77;;;;;;;8.34;63.79;102005.25;5050665;28;20052;-61
2023/02/11 02:15:30;;;;;;;26.25;17.23;;;;;;;8.38;63.80;101997.25;5045519;28;20060;-60
2023/02/11 02:18:02;;;;;;;26.02;18.27;;;;;;;8.37;64.21;101997.50;5035069;28;20053;-60
2023/02/11 02:20:52;;;;;;;28.70;19.33;;;;;;;8.44;65.20;101993.47;5043330;28;20060;-61
2023/02/11 02:23:33;;;;;;;25.98;17.98;;;;;;;8.49;65.09;101985.16;5033582;28;20060;-60
2023/02/11 02:26:28;;;;;;;27.05;18.25;;;;;;;8.49;64.91;101976.84;5033165;28;20059;-60
2023/02/11 02:29:40;;;;;;;29.02;20.13;;;;;;;8.42;63.66;101970.66;5041924;28;20057;-61
2023/02/11 02:32:27;;;;;;;27.63;18.65;;;;;;;8.42;64.01;101959.56;4948821;28;20050;-60
2023/02/11 02:35:01;;;;;;;28.83;20.45;;;;;;;8.46;64.76;101973.72;5039757;28;20049;-60
2023/02/11 02:37:36;;;;;;;28.13;19.55;;;;;;;8.49;63.72;101974.06;5052750;28;20060;-60
2023/02/11 02:40:12;;;;;;;27.40;19.20;;;;;;;8.53;63.99;101972.44;5052266;28;20068;-62
2023/02/11 02:42:41;;;;;;;28.00;19.48;;;;;;;8.53;63.96;101966.88;5052900;28;20063;-60
2023/02/11 02:45:11;;;;;;;31.45;19.95;;;;;;;8.45;63.67;101967.34;5052216;28;20060;-61
2023/02/11 02:47:40;;;;;;;30.13;18.77;;;;;;;8.38;64.61;101974.19;5040170;28;20053;-61
2023/02/11 02:50:09;;;;;;;27.98;19.00;;;;;;;8.36;64.33;101963.34;5032720;28;20084;-61
2023/02/11 02:52:46;;;;;;;29.08;19.35;;;;;;;8.33;64.08;101952.75;5032683;28;20057;-60
2023/02/11 02:55:33;;;;;;;26.30;18.98;;;;;;;8.39;65.06;101957.25;5032822;28;20053;-61
2023/02/11 02:58:40;;;;;;;28.85;18.75;;;;;;;8.38;65.10;101958.38;5036605;28;20045;-60
2023/02/11 03:01:18;;;;;;;27.50;18.98;;;;;;;8.29;64.61;101955.25;5031794;28;20058;-60
2023/02/11 03:03:54;;;;;;;27.23;19.73;;;;;;;8.32;64.67;101968.59;5050658;28;20049;-61
2023/02/11 03:06:30;;;;;;;28.50;18.83;;;;;;;8.30;65.21;101959.69;5052340;28;20470;-60
2023/02/11 03:09:04;;;;;;;25.23;18.63;;;;;;;8.23;64.72;101956.28;5052529;28;20060;-60
2023/02/11 03:11:32;;;;;;;28.60;19.20;;;;;;;8.22;65.07;101957.38;5051375;28;20064;-61
2023/02/11 03:14:03;;;;;;;27.58;18.52;;;;;;;8.27;66.03;101951.91;5032641;28;20049;-60
2023/02/11 03:16:34;;;;;;;29.73;19.02;;;;;;;8.25;66.33;101953.22;5031633;28;20398;-60
2023/02/11 03:19:08;;;;;;;28.63;19.33;;;;;;;8.19;65.52;101952.38;5050893;28;20064;-61
2023/02/11 03:21:38;;;;;;;26.10;19.63;;;;;;;8.25;65.06;101967.13;5052331;28;20375;-61
2023/02/11 03:24:11;;;;;;;26.95;19.27;;;;;;;8.22;65.39;101970.44;5052108;28;20409;-60
2023/02/11 03:26:43;;;;;;;27.48;19.52;;;;;;;8.18;66.55;101966.50;5052146;28;20053;-60
2023/02/11 03:29:17;;;;;;;27.08;19.17;;;;;;;8.30;65.62;101967.19;5049753;28;20056;-60
2023/02/11 03:31:55;;;;;;;25.63;18.02;;;;;;;8.29;65.82;101971.03;5051098;28;20048;-60
2023/02/11 03:34:30;;;;;;;27.48;18.58;;;;;;;8.30;65.62;101969.97;5050268;28;20049;-60
2023/02/11 03:37:01;;;;;;;26.55;18.30;;;;;;;8.37;64.76;101966.97;5052298;28;20064;-61
2023/02/11 03:39:33;;;;;;;30.70;18.20;;;;;;;8.31;64.89;101964.13;5051739;28;20521;-60
2023/02/11 03:42:02;;;;;;;29.05;19.25;;;;;;;8.38;64.85;101972.25;5051746;28;20060;-60
2023/02/11 03:44:34;;;;;;;26.42;19.00;;;;;;;8.29;65.47;101965.50;5051567;28;20048;-60
2023/02/11 03:47:05;;;;;;;28.05;18.58;;;;;;;8.33;66.18;101966.66;5049733;28;20472;-59
2023/02/11 03:49:35;;;;;;;27.23;19.98;;;;;;;8.33;65.99;101970.25;5050901;28;20421;-62
2023/02/11 03:52:05;;;;;;;26.75;18.77;;;;;;;8.41;65.57;101959.81;5051500;28;20417;-61
2023/02/11 03:54:32;;;;;;;27.73;17.63;;;;;;;8.34;65.66;101949.72;5051933;28;20049;-61
2023/02/11 03:57:02;;;;;;;27.48;19.85;;;;;;;8.38;65.34;101938.94;5051800;28;20068;-61
2023/02/11 03:59:29;;;;;;;30.58;19.73;;;;;;;8.35;64.97;101947.78;5052147;28;20064;-60
2023/02/11 04:01:58;;;;;;;29.35;20.15;;;;;;;8.41;65.39;101944.00;5048257;28;20469;-59
2023/02/11 04:04:28;;;;;;;29.85;19.92;;;;;;;8.31;65.77;101935.53;5032370;28;20049;-60
2023/02/11 04:06:57;;;;;;;27.83;19.70;;;;;;;8.30;64.88;101940.25;5050039;28;20393;-60
2023/02/11 04:09:24;;;;;;;35.05;21.10;;;;;;;8.36;65.92;101951.41;5051764;28;20068;-60
2023/02/11 04:11:51;;;;;;;30.38;20.67;;;;;;;8.41;65.75;101955.09;5044476;28;20478;-60
2023/02/11 04:14:19;;;;;;;31.02;20.35;;;;;;;8.36;65.01;101962.50;5031552;28;20054;-60
2023/02/11 04:16:46;;;;;;;30.70;20.67;;;;;;;8.43;64.86;101947.34;5033122;28;20050;-59
2023/02/11 04:19:13;;;;;;;29.30;20.30;;;;;;;8.48;65.10;101947.41;5032622;28;20056;-59
2023/02/11 04:21:40;;;;;;;29.65;20.15;;;;;;;8.43;66.22;101943.72;5031955;28;20176;-59
2023/02/11 04:24:15;;;;;;;29.73;20.63;;;;;;;8.44;65.97;101940.69;5031723;28;20052;-59
2023/02/11 04:26:42;;;;;;;29.77;20.70;;;;;;;8.34;66.67;101926.69;5031851;28;20050;-59
2023/02/11 04:29:09;;;;;;;30.95;20.92;;;;;;;8.35;66.45;101936.69;5031790;28;20064;-60
2023/02/11 04:31:37;;;;;;;33.53;23.10;;;;;;;8.14;68.68;101938.41;5034477;28;20053;-60
2023/02/11 04:34:07;;;;;;;34.83;22.23;;;;;;;8.13;68.70;101945.91;5033939;28;20049;-59
2023/02/11 04:36:34;;;;;;;34.17;22.67;;;;;;;8.03;68.94;101959.69;5031630;28;20068;-60
2023/02/11 04:39:01;;;;;;;39.65;23.90;;;;;;;8.05;68.82;101965.81;5031465;28;20414;-59
2023/02/11 04:41:30;;;;;;;33.17;22.55;;;;;;;8.02;70.25;101966.34;5031416;28;20057;-60
2023/02/11 04:43:57;;;;;;;34.38;21.85;;;;;;;8.06;70.73;101972.19;5031713;28;20049;-60
2023/02/11 04:46:25;;;;;;;37.63;24.33;;;;;;;7.87;70.21;101974.47;5036650;28;20053;-61
2023/02/11 04:48:52;;;;;;;35.05;23.05;;;;;;;8.01;70.15;101981.31;5054859;28;20053;-60
2023/02/11 04:51:19;;;;;;;34.00;23.40;;;;;;;8.01;70.77;101983.25;5054479;28;20061;-60
2023/02/11 04:53:46;;;;;;;33.55;23.02;;;;;;;8.00;70.37;101973.22;5055005;28;20060;-61
2023/02/11 04:56:16;;;;;;;34.63;24.00;;;;;;;8.00;70.76;101967.69;5054698;28;20498;-61
2023/02/11 04:58:45;;;;;;;36.83;23.35;;;;;;;7.84;71.40;101961.13;5054988;28;20386;-61
2023/02/11 05:01:16;;;;;;;35.50;23.77;;;;;;;7.83;71.29;101970.53;5045885;28;20053;-61
2023/02/11 05:03:44;;;;;;;36.63;24.58;;;;;;;7.81;72.40;101956.94;5035047;28;20057;-60
2023/02/11 05:06:11;;;;;;;32.67;22.33;;;;;;;7.84;71.97;101966.69;5048271;28;20049;-61
2023/02/11 05:08:38;;;;;;;41.03;24.65;;;;;;;7.82;71.78;101960.56;5054230;28;20060;-60
2023/02/11 05:11:07;;;;;;;32.90;22.27;;;;;;;7.87;71.69;101961.47;5054168;28;20080;-60
2023/02/11 05:13:37;;;;;;;36.53;24.40;;;;;;;7.82;71.79;101953.06;5049658;28;20390;-61
2023/02/11 05:16:06;;;;;;;;;;;;;;;7.81;72.72;101950.53;5037555;28;20049;-60
2023/02/11 05:18:33;;;;;;;40.63;24.33;;;;;;;7.76;72.43;101948.56;5034024;28;19931;-60
2023/02/11 05:21:06;;;;;;;38.15;25.42;;;;;;;7.90;73.58;101960.94;5050436;28;20509;-60
2023/02/11 05:23:34;;;;;;;39.08;25.42;;;;;;;7.93;72.34;101956.78;5054071;28;20474;-60
2023/02/11 05:26:05;;;;;;;39.83;24.98;;;;;;;7.93;72.59;101965.13;5053824;28;20064;-60
2023/02/11 05:28:32;;;;;;;42.22;26.20;;;;;;;7.95;73.61;101950.97;5053724;28;20060;-59
2023/02/11 05:30:59;;;;;;;37.80;23.90;;;;;;;8.05;72.73;101959.44;5053116;28;20053;-60
2023/02/11 05:33:31;;;;;;;39.05;26.42;;;;;;;7.99;72.60;101966.03;5053061;28;20076;-61
2023/02/11 05:35:59;;;;;;;36.25;23.60;;;;;;;8.00;73.56;101965.75;5034024;28;20418;-60
2023/02/11 05:38:27;;;;;;;37.53;24.25;;;;;;;8.02;72.58;101973.81;5034381;28;20057;-60
2023/02/11 05:40:54;;;;;;;35.38;24.20;;;;;;;8.01;72.15;101964.66;5033961;28;20058;-60
2023/02/11 05:43:22;;;;;;;40.75;22.70;;;;;;;8.05;72.79;101957.47;5033986;28;20060;-61
2023/02/11 05:45:49;;;;;;;40.42;23.02;;;;;;;7.92;73.02;101958.72;5036458;28;20049;-60
2023/02/11 05:48:20;;;;;;;39.50;24.58;;;;;;;7.98;72.09;101956.88;5034335;28;20053;-60
2023/02/11 05:50:49;;;;;;;35.10;23.42;;;;;;;7.94;72.12;101961.25;5033806;28;20060;-61
2023/02/11 05:53:16;;;;;;;31.80;22.33;;;;;;;8.02;73.22;101958.03;5034326;28;20064;-61
2023/02/11 05:55:44;;;;;;;32.28;21.88;;;;;;;8.00;73.32;101960.22;5032850;28;20057;-60
2023/02/11 05:58:11;;;;;;;28.67;21.02;;;;;;;8.01;72.32;101955.50;5033945;28;20053;-61
2023/02/11 06:00:38;;;;;;;33.15;22.40;;;;;;;8.07;72.17;101960.84;5047134;28;20491;-60
2023/02/11 06:03:06;;;;;;;35.85;23.25;;;;;;;8.08;71.57;101950.56;5053756;28;20052;-60
2023/02/11 06:05:34;;;;;;;32.97;21.75;;;;;;;8.03;71.38;101956.06;5053453;28;20504;-60
2023/02/11 06:08:03;;;;;;;33.42;21.83;;;;;;;8.03;71.09;101959.69;5044833;28;20060;-60
2023/02/11 06:10:30;;;;;;;29.33;20.02;;;;;;;8.03;71.84;101964.41;5052966;28;20060;-61
2023/02/11 06:12:57;;;;;;;31.90;21.25;;;;;;;8.05;72.57;101951.09;5053516;28;20080;-60
2023/02/11 06:15:24;;;;;;;29.23;21.70;;;;;;;8.04;71.51;101966.06;5046036;28;20508;-61
2023/02/11 06:17:52;;;;;;;29.45;20.88;;;;;;;8.12;72.03;101957.28;5033763;28;20053;-60
2023/02/11 06:20:20;;;;;;;32.65;22.48;;;;;;;8.17;71.55;101964.81;5040359;28;20494;-60
2023/02/11 06:22:48;;;;;;;29.60;20.25;;;;;;;8.11;70.90;101953.66;5052531;28;20053;-61
2023/02/11 06:25:17;;;;;;;30.48;19.92;;;;;;;8.07;71.43;101954.47;5053401;28;20518;-60
2023/02/11 06:27:45;;;;;;;29.95;20.48;;;;;;;8.05;70.70;101951.09;5052054;28;20409;-61
2023/02/11 06:30:14;;;;;;;29.35;20.92;;;;;;;8.04;71.37;101949.41;5046183;28;20049;-60
2023/02/11 06:32:41;;;;;;;31.48;20.98;;;;;;;7.86;71.01;101953.38;5043196;28;20740;-60
2023/02/11 06:35:08;;;;;;;28.15;20.80;;;;;;;7.97;70.79;101941.28;5045612;28;20056;-61
2023/02/11 06:37:36;;;;;;;28.63;20.65;;;;;;;7.98;72.10;101954.09;5052912;28;20049;-60
2023/02/11 06:40:03;;;;;;;27.35;19.92;;;;;;;8.04;71.86;101944.72;5037129;28;20057;-60
2023/02/11 06:42:33;;;;;;;27.30;19.90;;;;;;;8.07;71.87;101960.84;5040290;28;20056;-60
2023/02/11 06:45:00;;;;;;;29.05;21.05;;;;;;;8.12;70.44;101955.31;5050630;28;20059;-61
2023/02/11 06:47:27;;;;;;;26.30;19.98;;;;;;;8.09;71.07;101952.25;5035614;28;20057;-60
2023/02/11 06:49:55;;;;;;;27.17;20.02;;;;;;;8.07;71.61;101955.28;5040103;28;20062;-61
2023/02/11 06:52:22;;;;;;;31.58;21.88;;;;;;;8.06;70.81;101961.94;5052721;28;20064;-60
2023/02/11 06:54:49;;;;;;;28.17;19.48;;;;;;;8.12;71.50;101963.66;5045631;28;20076;-60
2023/02/11 06:57:16;;;;;;;29.05;20.75;;;;;;;8.03;71.41;101964.41;5040294;28;20059;-60
2023/02/11 06:59:45;;;;;;;28.73;20.13;;;;;;;8.00;70.94;101956.56;5044002;28;20069;-60
2023/02/11 07:02:12;;;;;;;30.27;20.67;;;;;;;8.05;71.41;101964.97;5037840;28;20053;-60
2023/02/11 07:04:40;;;;;;;30.40;19.77;;;;;;;8.00;72.01;101960.22;5041052;28;20053;-60
2023/02/11 07:07:07;;;;;;;28.38;20.02;;;;;;;8.01;70.79;101963.81;5050126;28;20060;-60
2023/02/11 07:09:34;;;;;;;28.88;20.58;;;;;;;8.12;71.44;101969.19;5032374;28;20050;-60
2023/02/11 07:12:01;;;;;;;30.10;22.08;;;;;;;8.12;71.01;101974.75;5032457;28;20057;-60
2023/02/11 07:14:29;;;;;;;29.00;19.73;;;;;;;8.10;71.44;101965.84;5032295;28;20493;-61
2023/02/11 07:16:57;;;;;;;25.77;19.35;;;;;;;8.23;70.32;101961.00;5050530;28;20053;-61
2023/02/11 07:19:25;;;;;;;30.67;20.67;;;;;;;8.12;70.57;101962.81;5033196;28;20509;-61
2023/02/11 07:21:52;;;;;;;31.13;20.58;;;;;;;8.19;70.29;101957.06;5043936;28;20048;-60
2023/02/11 07:24:19;;;;;;;32.60;21.85;;;;;;;8.10;70.52;101956.69;5041342;28;20053;-60
2023/02/11 07:26:46;;;;;;;30.52;21.23;;;;;;;8.15;70.69;101970.66;5041288;28;20489;-60
2023/02/11 07:29:14;;;;;;;32.40;20.88;;;;;;;8.12;71.37;101977.53;5045217;28;20060;-60
2023/02/11 07:31:41;;;;;;;28.52;18.17;;;;;;;8.27;70.98;101976.00;5037276;28;20487;-60
2023/02/11 07:34:11;;;;;;;30.20;20.35;;;;;;;8.29;70.20;101982.16;5048337;28;20060;-60
2023/02/11 07:36:38;;;;;;;28.63;20.00;;;;;;;8.26;70.46;101991.84;5049292;28;20041;-60
2023/02/11 07:39:05;;;;;;;30.23;20.63;;;;;;;8.29;70.40;101980.22;5045159;28;20045;-60
2023/02/11 07:41:34;;;;;;;32.35;21.55;;;;;;;8.29;71.59;101987.69;5038984;28;20049;-62
2023/02/11 07:44:02;;;;;;;31.00;20.38;;;;;;;8.39;71.34;101986.97;5041584;28;20544;-64
2023/02/11 07:46:29;;;;;;;27.23;19.65;;;;;;;8.43;71.47;101983.44;5044931;28;20410;-62
2023/02/11 07:48:57;;;;;;;28.70;19.80;;;;;;;8.48;70.50;101980.72;5041348;28;20077;-61
2023/02/11 07:51:27;;;;;;;30.35;21.60;;;;;;;8.43;69.82;101991.78;5042105;28;20057;-61
2023/02/11 07:53:57;;;;;;;33.50;21.08;;;;;;;8.33;71.03;101989.69;5047134;28;20068;-61
2023/02/11 07:56:24;;;;;;;40.00;26.38;;;;;;;8.39;70.54;101987.81;5033268;28;20053;-60
2023/02/11 07:58:51;;;;;;;34.88;23.55;;;;;;;8.52;69.81;101989.34;5043676;28;20097;-60
2023/02/11 08:01:23;;;;;;;34.85;22.85;;;;;;;8.57;69.94;101991.31;5040965;28;20053;-61
2023/02/11 08:03:51;;;;;;;34.17;23.15;;;;;;;8.44;69.79;101987.91;5044535;28;20413;-60
2023/02/11 08:06:21;;;;;;;35.35;22.27;;;;;;;8.53;70.79;101997.44;5036884;28;20474;-60
2023/02/11 08:08:49;;;;;;;;;;;;;;;8.37;70.23;102001.13;5052068;28;20486;-60
2023/02/11 08:11:19;;;;;;;34.67;22.15;;;;;;;8.53;71.01;102005.75;5051905;28;19929;-60
2023/02/11 08:13:46;;;;;;;36.20;22.08;;;;;;;8.42;70.61;101994.81;5043910;28;20045;-60
2023/02/11 08:16:18;;;;;;;37.17;22.25;;;;;;;8.48;70.50;101996.53;5031759;28;20403;-59
2023/02/11 08:18:46;;;;;;;35.33;22.65;;;;;;;8.39;70.46;101993.34;5035710;28;20064;-60
2023/02/11 08:21:14;;;;;;;35.45;22.45;;;;;;;8.48;71.57;101994.63;5047676;28;20059;-59
2023/02/11 08:23:43;;;;;;;35.40;22.40;;;;;;;8.53;71.85;102014.09;5054354;28;20057;-60
2023/02/11 08:26:13;;;;;;;38.03;23.05;;;;;;;8.46;70.84;102007.91;5054356;28;20696;-59
2023/02/11 08:28:43;;;;;;;41.15;23.95;;;;;;;8.45;71.52;102010.94;5053117;28;20044;-60
2023/02/11 08:31:12;;;;;;;41.13;24.23;;;;;;;8.41;71.35;102015.34;5053186;28;20057;-59
2023/02/11 08:33:40;;;;;;;45.00;25.00;;;;;;;8.41;72.27;102018.97;5035134;28;20509;-60
2023/02/11 08:36:09;;;;;;;40.50;24.52;;;;;;;8.38;72.61;102018.59;5037861;28;20486;-60
2023/02/11 08:38:37;;;;;;;44.80;26.00;;;;;;;8.40;72.66;102031.16;5053365;28;20064;-60
2023/02/11 08:41:04;;;;;;;41.38;25.85;;;;;;;8.40;71.32;102031.16;5054373;28;20057;-60
2023/02/11 08:43:33;;;;;;;46.03;26.73;;;;;;;8.33;71.59;102024.94;5053709;28;20064;-62
2023/02/11 08:46:01;;;;;;;43.85;26.20;;;;;;;8.42;71.56;102028.97;5042774;28;20056;-61
2023/02/11 08:48:28;;;;;;;45.97;26.80;;;;;;;8.47;73.14;102033.75;5054910;28;20057;-62
2023/02/11 08:50:56;;;;;;;46.45;27.00;;;;;;;8.47;71.74;102042.91;5043674;28;20058;-62
2023/02/11 08:53:23;;;;;;;46.33;25.83;;;;;;;8.44;72.45;102049.00;5038378;28;20057;-61
2023/02/11 08:55:52;;;;;;;47.97;27.00;;;;;;;8.40;72.39;102045.03;5045485;28;20152;-59
2023/02/11 08:58:20;;;;;;;44.55;25.38;;;;;;;8.53;71.95;102047.41;5041193;28;20057;-59
2023/02/11 09:00:50;;;;;;;48.47;26.05;;;;;;;8.58;71.32;102054.13;5046062;28;20501;-60
2023/02/11 09:03:17;;;;;;;46.33;26.92;;;;;;;8.61;71.56;102048.03;5036485;28;20056;-60
2023/02/11 09:05:46;;;;;;;47.55;28.40;;;;;;;8.70;71.68;102052.84;5042323;28;20060;-60
2023/02/11 09:08:14;;;;;;;48.35;26.45;;;;;;;8.70;71.95;102054.81;5053084;28;20080;-60
2023/02/11 09:10:41;;;;;;;48.70;27.95;;;;;;;8.81;70.99;102051.00;5050139;28;20516;-61
2023/02/11 09:13:09;;;;;;;49.85;29.27;;;;;;;8.86;70.56;102066.88;5050742;28;20059;-60
2023/02/11 09:15:36;;;;;;;45.90;28.10;;;;;;;8.92;72.04;102066.69;5034551;28;20052;-59
2023/02/11 09:18:06;;;;;;;46.10;27.63;;;;;;;9.00;71.85;102062.56;5054231;28;20060;-60
2023/02/11 09:20:33;;;;;;;45.92;26.02;;;;;;;8.99;71.31;102065.59;5049759;28;20052;-59
2023/02/11 09:23:00;;;;;;;50.55;27.63;;;;;;;8.98;71.50;102064.78;5046640;28;20064;-63
2023/02/11 09:25:28;;;;;;;52.78;29.30;;;;;;;8.97;70.61;102063.13;5046068;28;20053;-62
2023/02/11 09:27:55;;;;;;;49.13;28.73;;;;;;;8.96;69.95;102061.41;5041916;28;20041;-63
2023/02/11 09:30:22;;;;;;;55.47;30.23;;;;;;;8.79;70.54;102061.56;5051144;28;20473;-62
2023/02/11 09:32:49;;;;;;;50.08;27.20;;;;;;;8.77;71.29;102060.97;5052893;28;20052;-62
2023/02/11 09:35:18;;;;;;;53.47;29.95;;;;;;;8.70;71.00;102069.53;5040592;28;20049;-62
2023/02/11 09:37:45;;;;;;;49.90;28.13;;;;;;;8.84;72.44;102067.16;5046950;28;20474;-62
2023/02/11 09:40:15;;;;;;;51.13;28.50;;;;;;;8.73;72.57;102068.16;5042329;28;20478;-62
2023/02/11 09:42:47;;;;;;;47.15;26.77;;;;;;;9.10;71.70;102067.38;5040334;28;20049;-62
2023/02/11 09:45:19;;;;;;;48.10;27.58;;;;;;;9.15;70.78;102070.19;5051047;28;20057;-61
2023/02/11 09:47:50;;;;;;;54.17;27.23;;;;;;;9.29;70.21;102071.44;5048818;28;20064;-62
2023/02/11 09:50:27;;;;;;;48.70;27.10;;;;;;;9.29;71.03;102076.16;5047577;28;20069;-61
2023/02/11 09:53:00;;;;;;;51.63;27.52;;;;;;;9.44;69.39;102078.22;5047011;28;20188;-62
2023/02/11 09:55:29;;;;;;;52.72;28.70;;;;;;;9.43;69.71;102076.53;5052407;28;20061;-62
2023/02/11 09:57:57;;;;;;;45.88;27.77;;;;;;;9.25;70.04;102081.41;5048626;28;20049;-62
2023/02/11 10:00:31;;;;;;;47.83;26.90;;;;;;;9.44;70.42;102083.78;5035577;28;20057;-63
2023/02/11 10:03:36;;;;;;;50.88;25.48;;;;;;;9.44;70.59;102092.13;5038294;28;20124;-62
2023/02/11 10:06:19;;;;;;;44.70;25.58;;;;;;;9.41;68.91;102087.06;5043556;28;20053;-63
2023/02/11 10:08:58;;;;;;;45.53;26.27;;;;;;;9.34;70.29;102084.53;5045698;28;20057;-64
2023/02/11 10:11:34;;;;;;;48.53;28.10;;;;;;;9.47;69.19;102084.09;5034423;28;20050;-64
2023/02/11 10:14:11;;;;;;;52.08;29.27;;;;;;;9.31;69.52;102093.41;5046390;28;20056;-63
2023/02/11 10:16:51;;;;;;;44.83;27.52;;;;;;;9.58;69.32;102100.84;5032693;28;20046;-62
2023/02/11 10:19:41;;;;;;;47.63;26.08;;;;;;;9.69;70.15;102102.59;5049233;28;20063;-62
2023/02/11 10:22:18;;;;;;;57.30;30.08;;;;;;;9.68;69.33;102101.75;5036410;28;20056;-62
2023/02/11 10:24:53;;;;;;;47.00;26.60;;;;;;;9.71;69.69;102098.41;5049004;28;20076;-62
2023/02/11 10:27:22;;;;;;;46.83;27.38;;;;;;;9.62;70.06;102108.38;5039962;28;20418;-63
2023/02/11 10:29:53;;;;;;;48.78;26.65;;;;;;;9.55;69.25;102103.06;5035789;28;20061;-63
2023/02/11 10:32:30;;;;;;;49.42;27.48;;;;;;;9.57;70.06;102102.78;5048711;28;20477;-62
2023/02/11 10:35:02;;;;;;;53.70;27.85;;;;;;;9.57;68.49;102105.56;5040504;28;20387;-62
2023/02/11 10:37:31;;;;;;;48.08;28.38;;;;;;;9.60;69.72;102118.13;5037612;28;20045;-62
2023/02/11 10:39:58;;;;;;;48.97;27.38;;;;;;;9.64;69.53;102106.19;5051417;28;20049;-63
2023/02/11 10:42:27;;;;;;;49.58;27.80;;;;;;;9.73;69.76;102110.13;5051342;28;20067;-63
2023/02/11 10:45:00;;;;;;;47.95;26.88;;;;;;;9.81;69.22;102108.78;5051141;28;20045;-62
2023/02/11 10:47:35;;;;;;;51.78;28.80;;;;;;;9.77;68.98;102115.16;5051748;28;20052;-62
2023/02/11 10:50:19;;;;;;;43.60;27.08;;;;;;;9.88;69.43;102111.31;5048887;28;20069;-61
2023/02/11 10:52:50;;;;;;;50.58;26.75;;;;;;;9.96;69.10;102108.03;5035383;28;20048;-61
2023/02/11 10:55:20;;;;;;;46.60;25.75;;;;;;;9.84;68.07;102111.00;5048587;28;20048;-61
2023/02/11 10:57:55;;;;;;;52.88;29.17;;;;;;;9.80;68.13;102109.88;5048701;28;20052;-60
2023/02/11 11:00:38;;;;;;;51.67;27.52;;;;;;;9.69;68.24;102111.75;5043510;28;20057;-60
2023/02/11 11:03:16;;;;;;;50.17;29.00;;;;;;;9.79;68.85;102110.16;5043231;28;20062;-60
2023/02/11 11:05:49;;;;;;;47.25;28.13;;;;;;;9.81;68.93;102116.31;5040856;28;20413;-60
2023/02/11 11:08:19;;;;;;;48.17;29.13;;;;;;;9.80;69.05;102109.03;5043013;28;20057;-60
2023/02/11 11:10:48;;;;;;;45.22;27.23;;;;;;;9.98;68.71;102108.59;5046784;28;20053;-59
2023/02/11 11:13:28;;;;;;;47.77;27.87;;;;;;;9.96;69.08;102106.09;5048098;28;20053;-59
2023/02/11 11:16:17;;;;;;;56.30;30.67;;;;;;;9.98;67.92;102105.81;5051243;28;20066;-59
2023/02/11 11:18:46;;;;;;;44.28;28.23;;;;;;;10.04;67.95;102115.88;5043915;28;20052;-59
2023/02/11 11:21:16;;;;;;;44.17;27.63;;;;;;;10.01;67.86;102113.63;5046856;28;20056;-59
2023/02/11 11:23:50;;;;;;;45.92;27.88;;;;;;;10.16;67.36;102124.84;5042817;28;20475;-58
2023/02/11 11:26:18;;;;;;;49.58;28.20;;;;;;;10.29;67.73;102119.88;5052213;28;20049;-59
2023/02/11 11:28:57;;;;;;;45.78;27.92;;;;;;;10.41;67.60;102114.09;5050946;28;20040;-59
2023/02/11 11:31:28;;;;;;;48.38;28.95;;;;;;;10.30;67.63;102116.03;5052355;28;20052;-61
2023/02/11 11:33:58;;;;;;;45.67;29.38;;;;;;;10.37;66.69;102119.38;5052144;28;20061;-60